sensor_id;sensor_type;location;lat;lon;timestamp;pressure;altitude;pressure_sealevel;temperature;humidity
51287;BME280;37364;46.974;18.916;2023-04-29T00:00:12;153292.22;;;11.68;96.11
51287;BME280;37364;46.974;18.916;2023-04-29T00:02:45;153281.84;;;11.64;97.44
51287;BME280;37364;46.974;18.916;2023-04-29T00:05:15;153274.09;;;11.61;98.11
51287;BME280;37364;46.974;18.916;2023-04-29T00:07:46;153266.31;;;11.58;96.82
51287;BME280;37364;46.974;18.916;2023-04-29T00:10:17;153259.84;;;11.55;97.25
51287;BME280;37364;46.974;18.916;2023-04-29T00:12:47;153249.47;;;11.51;99.25
51287;BME280;37364;46.974;18.916;2023-04-29T00:15:18;153248.19;;;11.51;97.99
51287;BME280;37364;46.974;18.916;2023-04-29T00:17:51;153235.22;;;11.45;99.41
51287;BME280;37364;46.974;18.916;2023-04-29T00:20:21;153237.78;;;11.46;97.97
51287;BME280;37364;46.974;18.916;2023-04-29T00:22:52;153250.75;;;11.52;98.45
51287;BME280;37364;46.974;18.916;2023-04-29T00:25:24;153245.59;;;11.50;98.83
51287;BME280;37364;46.974;18.916;2023-04-29T00:27:58;153217.06;;;11.38;100.00
51287;BME280;37364;46.974;18.916;2023-04-29T00:30:28;153200.25;;;11.32;100.00
51287;BME280;37364;46.974;18.916;2023-04-29T00:33:01;153191.16;;;11.28;100.00
51287;BME280;37364;46.974;18.916;2023-04-29T00:35:31;153151.03;;;11.12;100.00
51287;BME280;37364;46.974;18.916;2023-04-29T00:38:02;153134.22;;;11.05;100.00
51287;BME280;37364;46.974;18.916;2023-04-29T00:40:32;153109.59;;;10.96;100.00
51287;BME280;37364;46.974;18.916;2023-04-29T00:43:03;153082.38;;;10.85;100.00
51287;BME280;37364;46.974;18.916;2023-04-29T00:45:33;153079.81;;;10.84;100.00
51287;BME280;37364;46.974;18.916;2023-04-29T00:48:06;153079.81;;;10.84;100.00
51287;BME280;37364;46.974;18.916;2023-04-29T00:50:37;153049.97;;;10.72;100.00
51287;BME280;37364;46.974;18.916;2023-04-29T00:53:07;153064.22;;;10.78;100.00
51287;BME280;37364;46.974;18.916;2023-04-29T00:55:40;153072.03;;;10.81;100.00
51287;BME280;37364;46.974;18.916;2023-04-29T00:58:11;153062.94;;;10.77;100.00
51287;BME280;37364;46.974;18.916;2023-04-29T01:00:41;153064.22;;;10.78;100.00
51287;BME280;37364;46.974;18.916;2023-04-29T01:03:18;153074.59;;;10.82;100.00
51287;BME280;37364;46.974;18.916;2023-04-29T01:05:49;153066.84;;;10.79;100.00
51287;BME280;37364;46.974;18.916;2023-04-29T01:08:33;153064.22;;;10.78;100.00
51287;BME280;37364;46.974;18.916;2023-04-29T01:11:08;153078.47;;;10.83;100.00
51287;BME280;37364;46.974;18.916;2023-04-29T01:13:42;153073.31;;;10.81;100.00
51287;BME280;37364;46.974;18.916;2023-04-29T01:16:16;153068.13;;;10.79;100.00
51287;BME280;37364;46.974;18.916;2023-04-29T01:18:53;153074.59;;;10.82;100.00
51287;BME280;37364;46.974;18.916;2023-04-29T01:21:28;153070.75;;;10.80;100.00
51287;BME280;37364;46.974;18.916;2023-04-29T01:24:01;153059.06;;;10.76;100.00
51287;BME280;37364;46.974;18.916;2023-04-29T01:26:33;153056.50;;;10.75;100.00
51287;BME280;37364;46.974;18.916;2023-04-29T01:29:27;153046.13;;;10.71;100.00
51287;BME280;37364;46.974;18.916;2023-04-29T01:32:04;153059.06;;;10.76;100.00
51287;BME280;37364;46.974;18.916;2023-04-29T01:34:43;153056.50;;;10.75;100.00
51287;BME280;37364;46.974;18.916;2023-04-29T01:37:18;153056.50;;;10.75;100.00
51287;BME280;37364;46.974;18.916;2023-04-29T01:39:59;153044.81;;;10.70;100.00
51287;BME280;37364;46.974;18.916;2023-04-29T01:42:44;153043.53;;;10.69;100.00
51287;BME280;37364;46.974;18.916;2023-04-29T01:45:18;153042.25;;;10.69;100.00
51287;BME280;37364;46.974;18.916;2023-04-29T01:47:52;153030.59;;;10.64;100.00
51287;BME280;37364;46.974;18.916;2023-04-29T01:50:23;153024.09;;;10.62;100.00
51287;BME280;37364;46.974;18.916;2023-04-29T01:52:58;153021.53;;;10.61;100.00
51287;BME280;37364;46.974;18.916;2023-04-29T01:55:31;153015.03;;;10.58;100.00
51287;BME280;37364;46.974;18.916;2023-04-29T01:58:16;153012.47;;;10.57;100.00
51287;BME280;37364;46.974;18.916;2023-04-29T02:00:49;153022.81;;;10.61;100.00
51287;BME280;37364;46.974;18.916;2023-04-29T02:03:20;153011.19;;;10.57;100.00
51287;BME280;37364;46.974;18.916;2023-04-29T02:05:54;153006.00;;;10.55;100.00
51287;BME280;37364;46.974;18.916;2023-04-29T02:08:25;153009.84;;;10.56;100.00
51287;BME280;37364;46.974;18.916;2023-04-29T02:10:58;153004.66;;;10.54;100.00
51287;BME280;37364;46.974;18.916;2023-04-29T02:13:35;153002.09;;;10.53;100.00
51287;BME280;37364;46.974;18.916;2023-04-29T02:16:09;152993.03;;;10.49;100.00
51287;BME280;37364;46.974;18.916;2023-04-29T02:18:49;152991.75;;;10.49;100.00
51287;BME280;37364;46.974;18.916;2023-04-29T02:21:21;152982.69;;;10.45;100.00
51287;BME280;37364;46.974;18.916;2023-04-29T02:23:52;152967.16;;;10.39;100.00
51287;BME280;37364;46.974;18.916;2023-04-29T02:26:26;152980.06;;;10.44;100.00
51287;BME280;37364;46.974;18.916;2023-04-29T02:28:57;152973.63;;;10.42;100.00
51287;BME280;37364;46.974;18.916;2023-04-29T02:31:27;152973.63;;;10.42;100.00
51287;BME280;37364;46.974;18.916;2023-04-29T02:33:58;152968.44;;;10.40;100.00
51287;BME280;37364;46.974;18.916;2023-04-29T02:36:29;152989.16;;;10.48;100.00
51287;BME280;37364;46.974;18.916;2023-04-29T02:38:59;152982.69;;;10.45;100.00
51287;BME280;37364;46.974;18.916;2023-04-29T02:41:32;152986.59;;;10.47;100.00
51287;BME280;37364;46.974;18.916;2023-04-29T02:44:02;152976.22;;;10.43;100.00
51287;BME280;37364;46.974;18.916;2023-04-29T02:46:33;152981.41;;;10.45;100.00
51287;BME280;37364;46.974;18.916;2023-04-29T02:49:03;152961.97;;;10.37;100.00
51287;BME280;37364;46.974;18.916;2023-04-29T02:51:34;152976.22;;;10.43;100.00
51287;BME280;37364;46.974;18.916;2023-04-29T02:54:04;152987.88;;;10.47;100.00
51287;BME280;37364;46.974;18.916;2023-04-29T02:56:37;152977.50;;;10.43;100.00
51287;BME280;37364;46.974;18.916;2023-04-29T02:59:07;152971.06;;;10.41;100.00
51287;BME280;37364;46.974;18.916;2023-04-29T03:01:38;152972.34;;;10.41;100.00
51287;BME280;37364;46.974;18.916;2023-04-29T03:04:10;152973.63;;;10.42;100.00
51287;BME280;37364;46.974;18.916;2023-04-29T03:06:41;152985.25;;;10.46;100.00
51287;BME280;37364;46.974;18.916;2023-04-29T03:09:11;152978.78;;;10.44;100.00
51287;BME280;37364;46.974;18.916;2023-04-29T03:11:47;152964.53;;;10.38;100.00
51287;BME280;37364;46.974;18.916;2023-04-29T03:14:18;152961.97;;;10.37;100.00
51287;BME280;37364;46.974;18.916;2023-04-29T03:16:48;152956.81;;;10.35;100.00
51287;BME280;37364;46.974;18.916;2023-04-29T03:19:19;152958.09;;;10.36;100.00
51287;BME280;37364;46.974;18.916;2023-04-29T03:21:49;152959.38;;;10.36;100.00
51287;BME280;37364;46.974;18.916;2023-04-29T03:24:20;152955.47;;;10.35;100.00
51287;BME280;37364;46.974;18.916;2023-04-29T03:26:53;152959.38;;;10.36;100.00
51287;BME280;37364;46.974;18.916;2023-04-29T03:29:26;152942.50;;;10.29;100.00
51287;BME280;37364;46.974;18.916;2023-04-29T03:31:56;152960.66;;;10.37;100.00
51287;BME280;37364;46.974;18.916;2023-04-29T03:34:29;152949.03;;;10.32;100.00
51287;BME280;37364;46.974;18.916;2023-04-29T03:37:16;152947.75;;;10.32;100.00
51287;BME280;37364;46.974;18.916;2023-04-29T03:39:53;152952.91;;;10.34;100.00
51287;BME280;37364;46.974;18.916;2023-04-29T03:42:26;152946.47;;;10.31;100.00
51287;BME280;37364;46.974;18.916;2023-04-29T03:44:56;152945.13;;;10.31;100.00
51287;BME280;37364;46.974;18.916;2023-04-29T03:47:26;152969.72;;;10.40;100.00
51287;BME280;37364;46.974;18.916;2023-04-29T03:49:57;152976.22;;;10.43;100.00
51287;BME280;37364;46.974;18.916;2023-04-29T03:52:27;152965.81;;;10.39;100.00
51287;BME280;37364;46.974;18.916;2023-04-29T03:55:07;152971.06;;;10.41;100.00
51287;BME280;37364;46.974;18.916;2023-04-29T03:57:41;152976.22;;;10.43;100.00
51287;BME280;37364;46.974;18.916;2023-04-29T04:00:13;152980.06;;;10.44;100.00
51287;BME280;37364;46.974;18.916;2023-04-29T04:02:45;152981.41;;;10.45;100.00
51287;BME280;37364;46.974;18.916;2023-04-29T04:05:16;152981.41;;;10.45;100.00
51287;BME280;37364;46.974;18.916;2023-04-29T04:07:52;152994.31;;;10.50;100.00
51287;BME280;37364;46.974;18.916;2023-04-29T04:10:32;153000.81;;;10.53;100.00
51287;BME280;37364;46.974;18.916;2023-04-29T04:13:10;153025.44;;;10.62;100.00
51287;BME280;37364;46.974;18.916;2023-04-29T04:15:41;153022.81;;;10.61;100.00
51287;BME280;37364;46.974;18.916;2023-04-29T04:18:12;153028.00;;;10.63;100.00
51287;BME280;37364;46.974;18.916;2023-04-29T04:20:42;153043.53;;;10.69;100.00
51287;BME280;37364;46.974;18.916;2023-04-29T04:23:13;153053.88;;;10.74;100.00
51287;BME280;37364;46.974;18.916;2023-04-29T04:25:44;153048.69;;;10.72;100.00
51287;BME280;37364;46.974;18.916;2023-04-29T04:28:40;153057.78;;;10.75;100.00
51287;BME280;37364;46.974;18.916;2023-04-29T04:31:17;153060.38;;;10.76;100.00
51287;BME280;37364;46.974;18.916;2023-04-29T04:33:49;153066.84;;;10.79;100.00
51287;BME280;37364;46.974;18.916;2023-04-29T04:36:20;153079.81;;;10.84;100.00
51287;BME280;37364;46.974;18.916;2023-04-29T04:38:50;153082.38;;;10.85;100.00
51287;BME280;37364;46.974;18.916;2023-04-29T04:41:20;153083.66;;;10.85;100.00
51287;BME280;37364;46.974;18.916;2023-04-29T04:43:55;153086.28;;;10.86;100.00
51287;BME280;37364;46.974;18.916;2023-04-29T04:46:34;153082.38;;;10.85;100.00
51287;BME280;37364;46.974;18.916;2023-04-29T04:49:11;153078.47;;;10.83;100.00
51287;BME280;37364;46.974;18.916;2023-04-29T04:51:48;153085.00;;;10.86;100.00
51287;BME280;37364;46.974;18.916;2023-04-29T04:54:19;153078.47;;;10.83;100.00
51287;BME280;37364;46.974;18.916;2023-04-29T04:56:59;153077.19;;;10.83;100.00
51287;BME280;37364;46.974;18.916;2023-04-29T04:59:32;153081.09;;;10.84;100.00
51287;BME280;37364;46.974;18.916;2023-04-29T05:02:02;153079.81;;;10.84;100.00
51287;BME280;37364;46.974;18.916;2023-04-29T05:04:34;153081.09;;;10.84;100.00
51287;BME280;37364;46.974;18.916;2023-04-29T05:07:04;153088.84;;;10.87;100.00
51287;BME280;37364;46.974;18.916;2023-04-29T05:09:55;153087.56;;;10.87;100.00
51287;BME280;37364;46.974;18.916;2023-04-29T05:12:26;153092.72;;;10.89;100.00
51287;BME280;37364;46.974;18.916;2023-04-29T05:15:02;153104.38;;;10.94;100.00
51287;BME280;37364;46.974;18.916;2023-04-29T05:17:34;153110.88;;;10.96;100.00
51287;BME280;37364;46.974;18.916;2023-04-29T05:20:06;153105.69;;;10.94;100.00
51287;BME280;37364;46.974;18.916;2023-04-29T05:22:40;153122.53;;;11.01;100.00
51287;BME280;37364;46.974;18.916;2023-04-29T05:25:12;153103.09;;;10.93;100.00
51287;BME280;37364;46.974;18.916;2023-04-29T05:27:42;153103.09;;;10.93;100.00
51287;BME280;37364;46.974;18.916;2023-04-29T05:30:18;153114.78;;;10.98;100.00
51287;BME280;37364;46.974;18.916;2023-04-29T05:32:49;153105.69;;;10.94;100.00
51287;BME280;37364;46.974;18.916;2023-04-29T05:35:21;153123.81;;;11.01;100.00
51287;BME280;37364;46.974;18.916;2023-04-29T05:37:51;153140.66;;;11.08;100.00
51287;BME280;37364;46.974;18.916;2023-04-29T05:40:28;153169.16;;;11.19;99.62
51287;BME280;37364;46.974;18.916;2023-04-29T05:43:15;153193.78;;;11.29;99.76
51287;BME280;37364;46.974;18.916;2023-04-29T05:45:49;153213.19;;;11.37;99.57
51287;BME280;37364;46.974;18.916;2023-04-29T05:48:19;153230.03;;;11.43;100.00
51287;BME280;37364;46.974;18.916;2023-04-29T05:50:51;153268.91;;;11.59;100.00
51287;BME280;37364;46.974;18.916;2023-04-29T05:53:22;153287.03;;;11.66;98.64
51287;BME280;37364;46.974;18.916;2023-04-29T05:55:52;153305.19;;;11.73;98.21
51287;BME280;37364;46.974;18.916;2023-04-29T05:58:23;153315.53;;;11.77;98.65
51287;BME280;37364;46.974;18.916;2023-04-29T06:00:56;153332.41;;;11.84;97.13
51287;BME280;37364;46.974;18.916;2023-04-29T06:03:29;153370.03;;;11.99;94.69
51287;BME280;37364;46.974;18.916;2023-04-29T06:06:18;153427.06;;;12.21;96.93
51287;BME280;37364;46.974;18.916;2023-04-29T06:09:00;153468.53;;;12.38;95.01
51287;BME280;37364;46.974;18.916;2023-04-29T06:11:40;153495.78;;;12.49;92.19
51287;BME280;37364;46.974;18.916;2023-04-29T06:14:11;153500.97;;;12.51;90.97
51287;BME280;37364;46.974;18.916;2023-04-29T06:16:44;153528.16;;;12.61;90.85
51287;BME280;37364;46.974;18.916;2023-04-29T06:19:15;153590.44;;;12.86;91.35
51287;BME280;37364;46.974;18.916;2023-04-29T06:21:46;153634.53;;;13.03;90.12
51287;BME280;37364;46.974;18.916;2023-04-29T06:24:17;153652.66;;;13.11;89.56
51287;BME280;37364;46.974;18.916;2023-04-29T06:26:47;153604.72;;;12.92;88.38
51287;BME280;37364;46.974;18.916;2023-04-29T06:29:17;153620.25;;;12.98;91.48
51287;BME280;37364;46.974;18.916;2023-04-29T06:31:50;153606.00;;;12.92;89.00
51287;BME280;37364;46.974;18.916;2023-04-29T06:34:22;153606.00;;;12.92;92.13
51287;BME280;37364;46.974;18.916;2023-04-29T06:37:24;153615.06;;;12.96;93.23
51287;BME280;37364;46.974;18.916;2023-04-29T06:40:11;153644.91;;;13.08;94.02
51287;BME280;37364;46.974;18.916;2023-04-29T06:43:01;153615.06;;;12.96;95.50
51287;BME280;37364;46.974;18.916;2023-04-29T06:45:40;153716.28;;;13.36;96.22
51287;BME280;37364;46.974;18.916;2023-04-29T06:48:23;153752.59;;;13.50;96.95
51287;BME280;37364;46.974;18.916;2023-04-29T06:50:55;153759.09;;;13.53;93.69
51287;BME280;37364;46.974;18.916;2023-04-29T06:53:28;153770.75;;;13.57;94.46
51287;BME280;37364;46.974;18.916;2023-04-29T06:55:58;153799.31;;;13.69;93.11
51287;BME280;37364;46.974;18.916;2023-04-29T06:58:29;153864.19;;;13.94;93.43
51287;BME280;37364;46.974;18.916;2023-04-29T07:00:59;153847.28;;;13.88;89.82
51287;BME280;37364;46.974;18.916;2023-04-29T07:03:37;153868.09;;;13.96;89.72
51287;BME280;37364;46.974;18.916;2023-04-29T07:06:09;153956.31;;;14.31;90.37
51287;BME280;37364;46.974;18.916;2023-04-29T07:08:40;153943.38;;;14.26;91.91
51287;BME280;37364;46.974;18.916;2023-04-29T07:11:10;154004.38;;;14.50;88.45
51287;BME280;37364;46.974;18.916;2023-04-29T07:13:40;154030.38;;;14.60;85.04
51287;BME280;37364;46.974;18.916;2023-04-29T07:16:14;154069.31;;;14.75;84.19
51287;BME280;37364;46.974;18.916;2023-04-29T07:19:02;154112.19;;;14.92;82.50
51287;BME280;37364;46.974;18.916;2023-04-29T07:21:41;154184.88;;;15.21;82.22
51287;BME280;37364;46.974;18.916;2023-04-29T07:24:17;154181.03;;;15.19;82.33
51287;BME280;37364;46.974;18.916;2023-04-29T07:26:51;154227.78;;;15.38;80.76
51287;BME280;37364;46.974;18.916;2023-04-29T07:29:25;154339.56;;;15.82;81.96
51287;BME280;37364;46.974;18.916;2023-04-29T07:32:01;154422.69;;;16.15;81.60
51287;BME280;37364;46.974;18.916;2023-04-29T07:34:42;154603.47;;;16.86;76.38
51287;BME280;37364;46.974;18.916;2023-04-29T07:37:16;154596.94;;;16.84;76.27
51287;BME280;37364;46.974;18.916;2023-04-29T07:39:51;154613.88;;;16.90;75.71
51287;BME280;37364;46.974;18.916;2023-04-29T07:42:25;154721.81;;;17.33;75.22
51287;BME280;37364;46.974;18.916;2023-04-29T07:45:01;154742.63;;;17.41;73.50
51287;BME280;37364;46.974;18.916;2023-04-29T07:47:35;154754.31;;;17.46;77.91
51287;BME280;37364;46.974;18.916;2023-04-29T07:50:10;154742.63;;;17.41;73.79
51287;BME280;37364;46.974;18.916;2023-04-29T07:52:43;154702.31;;;17.25;74.59
51287;BME280;37364;46.974;18.916;2023-04-29T07:55:15;154708.81;;;17.28;74.68
51287;BME280;37364;46.974;18.916;2023-04-29T07:57:47;154689.28;;;17.20;78.36
51287;BME280;37364;46.974;18.916;2023-04-29T08:00:27;154754.31;;;17.46;75.49
51287;BME280;37364;46.974;18.916;2023-04-29T08:03:17;154730.88;;;17.36;75.44
51287;BME280;37364;46.974;18.916;2023-04-29T08:06:58;154766.00;;;17.50;75.60
51287;BME280;37364;46.974;18.916;2023-04-29T08:14:33;154887.06;;;17.98;76.31
51287;BME280;37364;46.974;18.916;2023-04-29T08:18:21;155000.31;;;18.43;72.92
51287;BME280;37364;46.974;18.916;2023-04-29T08:21:50;154875.34;;;17.93;75.35
51287;BME280;37364;46.974;18.916;2023-04-29T08:25:06;154855.88;;;17.86;76.19
51287;BME280;37364;46.974;18.916;2023-04-29T08:27:36;154889.66;;;17.99;75.99
51287;BME280;37364;46.974;18.916;2023-04-29T08:30:08;154936.53;;;18.17;75.52
51287;BME280;37364;46.974;18.916;2023-04-29T08:32:38;155001.59;;;18.43;77.30
51287;BME280;37364;46.974;18.916;2023-04-29T08:35:09;154988.56;;;18.38;73.46
51287;BME280;37364;46.974;18.916;2023-04-29T08:37:39;155001.59;;;18.43;77.65
51287;BME280;37364;46.974;18.916;2023-04-29T08:40:13;155038.03;;;18.57;74.93
51287;BME280;37364;46.974;18.916;2023-04-29T08:42:44;155023.69;;;18.52;75.75
51287;BME280;37364;46.974;18.916;2023-04-29T08:45:19;155168.25;;;19.09;74.00
51287;BME280;37364;46.974;18.916;2023-04-29T08:47:53;155092.69;;;18.79;72.99
51287;BME280;37364;46.974;18.916;2023-04-29T08:50:25;155092.69;;;18.79;76.93
51287;BME280;37364;46.974;18.916;2023-04-29T08:52:56;155121.41;;;18.90;76.00
51287;BME280;37364;46.974;18.916;2023-04-29T08:55:30;155180.00;;;19.13;74.14
51287;BME280;37364;46.974;18.916;2023-04-29T08:58:01;155094.03;;;18.80;74.26
51287;BME280;37364;46.974;18.916;2023-04-29T09:00:33;155144.84;;;19.00;74.61
51287;BME280;37364;46.974;18.916;2023-04-29T09:03:13;155226.88;;;19.32;74.97
51287;BME280;37364;46.974;18.916;2023-04-29T09:05:48;155252.91;;;19.42;72.24
51287;BME280;37364;46.974;18.916;2023-04-29T09:08:19;155310.22;;;19.65;74.43
51287;BME280;37364;46.974;18.916;2023-04-29T09:10:53;155434.03;;;20.13;71.17
51287;BME280;37364;46.974;18.916;2023-04-29T09:13:25;155533.09;;;20.52;73.96
51287;BME280;37364;46.974;18.916;2023-04-29T09:15:55;155405.38;;;20.02;73.12
51287;BME280;37364;46.974;18.916;2023-04-29T09:18:42;155311.50;;;19.65;71.79
51287;BME280;37364;46.974;18.916;2023-04-29T09:21:17;155421.00;;;20.08;72.41
51287;BME280;37364;46.974;18.916;2023-04-29T09:23:50;155389.75;;;19.96;75.24
51287;BME280;37364;46.974;18.916;2023-04-29T09:26:24;155362.34;;;19.85;73.87
51287;BME280;37364;46.974;18.916;2023-04-29T09:29:08;155084.91;;;18.76;69.22
51287;BME280;37364;46.974;18.916;2023-04-29T09:31:40;155058.84;;;18.66;74.03
51287;BME280;37364;46.974;18.916;2023-04-29T09:34:11;155123.97;;;18.91;75.42
51287;BME280;37364;46.974;18.916;2023-04-29T09:36:44;155170.88;;;19.10;76.56
51287;BME280;37364;46.974;18.916;2023-04-29T09:39:15;155242.47;;;19.38;76.31
51287;BME280;37364;46.974;18.916;2023-04-29T09:42:06;155259.44;;;19.45;70.30
51287;BME280;37364;46.974;18.916;2023-04-29T09:44:40;155208.63;;;19.25;72.42
51287;BME280;37364;46.974;18.916;2023-04-29T09:47:11;155193.00;;;19.19;72.12
51287;BME280;37364;46.974;18.916;2023-04-29T09:49:43;155144.84;;;19.00;73.04
51287;BME280;37364;46.974;18.916;2023-04-29T09:52:16;155199.53;;;19.21;71.56
51287;BME280;37364;46.974;18.916;2023-04-29T09:54:47;155234.69;;;19.35;73.55
51287;BME280;37364;46.974;18.916;2023-04-29T09:57:20;155256.81;;;19.44;72.02
51287;BME280;37364;46.974;18.916;2023-04-29T09:59:51;154950.84;;;18.23;72.91
51287;BME280;37364;46.974;18.916;2023-04-29T10:02:22;155067.97;;;18.69;75.35
51287;BME280;37364;46.974;18.916;2023-04-29T10:04:54;155009.38;;;18.46;75.53
51287;BME280;37364;46.974;18.916;2023-04-29T10:07:26;154854.53;;;17.85;75.06
51287;BME280;37364;46.974;18.916;2023-04-29T10:09:57;154969.03;;;18.30;74.73
51287;BME280;37364;46.974;18.916;2023-04-29T10:12:30;155070.59;;;18.70;77.86
51287;BME280;37364;46.974;18.916;2023-04-29T10:15:03;155021.13;;;18.51;72.48
51287;BME280;37364;46.974;18.916;2023-04-29T10:17:43;155036.72;;;18.57;77.36
51287;BME280;37364;46.974;18.916;2023-04-29T10:20:21;155109.69;;;18.86;77.28
51287;BME280;37364;46.974;18.916;2023-04-29T10:22:53;155166.97;;;19.08;74.56
51287;BME280;37364;46.974;18.916;2023-04-29T10:25:26;155144.84;;;19.00;72.01
51287;BME280;37364;46.974;18.916;2023-04-29T10:27:59;155118.78;;;18.89;77.66
51287;BME280;37364;46.974;18.916;2023-04-29T10:30:33;155126.59;;;18.92;75.94
51287;BME280;37364;46.974;18.916;2023-04-29T10:33:05;155108.38;;;18.85;75.48
51287;BME280;37364;46.974;18.916;2023-04-29T10:35:37;155157.84;;;19.05;74.66
51287;BME280;37364;46.974;18.916;2023-04-29T10:38:13;155204.75;;;19.23;76.16
51287;BME280;37364;46.974;18.916;2023-04-29T10:40:46;155213.88;;;19.27;78.50
51287;BME280;37364;46.974;18.916;2023-04-29T10:43:24;155157.84;;;19.05;75.43
51287;BME280;37364;46.974;18.916;2023-04-29T10:46:16;154967.75;;;18.30;77.46
51287;BME280;37364;46.974;18.916;2023-04-29T10:48:50;154885.78;;;17.97;77.43
51287;BME280;37364;46.974;18.916;2023-04-29T10:51:29;155083.56;;;18.75;76.31
51287;BME280;37364;46.974;18.916;2023-04-29T10:54:02;155170.88;;;19.10;75.45
51287;BME280;37364;46.974;18.916;2023-04-29T10:56:37;155090.13;;;18.78;79.19
51287;BME280;37364;46.974;18.916;2023-04-29T10:59:14;155262.03;;;19.46;78.02
51287;BME280;37364;46.974;18.916;2023-04-29T11:01:46;155389.75;;;19.96;77.30
51287;BME280;37364;46.974;18.916;2023-04-29T11:04:18;155209.94;;;19.25;75.20
51287;BME280;37364;46.974;18.916;2023-04-29T11:06:51;155049.78;;;18.62;74.42
51287;BME280;37364;46.974;18.916;2023-04-29T11:09:23;155129.22;;;18.93;75.65
51287;BME280;37364;46.974;18.916;2023-04-29T11:12:01;155044.50;;;18.60;72.38
51287;BME280;37364;46.974;18.916;2023-04-29T11:14:40;155297.19;;;19.60;75.00
51287;BME280;37364;46.974;18.916;2023-04-29T11:17:18;155332.41;;;19.73;72.94
51287;BME280;37364;46.974;18.916;2023-04-29T11:20:00;155366.28;;;19.87;73.19
51287;BME280;37364;46.974;18.916;2023-04-29T11:22:30;155250.31;;;19.41;72.59
51287;BME280;37364;46.974;18.916;2023-04-29T11:25:05;155359.78;;;19.84;73.35
51287;BME280;37364;46.974;18.916;2023-04-29T11:27:39;155362.34;;;19.85;72.05
51287;BME280;37364;46.974;18.916;2023-04-29T11:30:14;155426.19;;;20.10;73.73
51287;BME280;37364;46.974;18.916;2023-04-29T11:32:44;155424.91;;;20.10;73.72
51287;BME280;37364;46.974;18.916;2023-04-29T11:35:19;155512.19;;;20.44;70.69
51287;BME280;37364;46.974;18.916;2023-04-29T11:37:52;155290.69;;;19.57;70.48
51287;BME280;37364;46.974;18.916;2023-04-29T11:40:32;155233.34;;;19.34;73.95
51287;BME280;37364;46.974;18.916;2023-04-29T11:43:06;155211.25;;;19.26;73.33
51287;BME280;37364;46.974;18.916;2023-04-29T11:45:45;155355.88;;;19.83;72.37
51287;BME280;37364;46.974;18.916;2023-04-29T11:48:19;155483.56;;;20.33;70.94
51287;BME280;37364;46.974;18.916;2023-04-29T11:50:51;155371.47;;;19.89;72.22
51287;BME280;37364;46.974;18.916;2023-04-29T11:53:24;155488.78;;;20.35;67.74
51287;BME280;37364;46.974;18.916;2023-04-29T11:55:59;155623.06;;;20.88;73.76
51287;BME280;37364;46.974;18.916;2023-04-29T11:58:29;155800.38;;;21.58;67.24
51287;BME280;37364;46.974;18.916;2023-04-29T12:01:03;155933.44;;;22.10;72.35
51287;BME280;37364;46.974;18.916;2023-04-29T12:03:33;155672.59;;;21.07;67.95
51287;BME280;37364;46.974;18.916;2023-04-29T12:06:04;155728.66;;;21.29;67.22
51287;BME280;37364;46.974;18.916;2023-04-29T12:08:34;155679.09;;;21.10;65.79
51287;BME280;37364;46.974;18.916;2023-04-29T12:11:06;155533.09;;;20.52;69.36
51287;BME280;37364;46.974;18.916;2023-04-29T12:13:36;155358.50;;;19.84;70.71
51287;BME280;37364;46.974;18.916;2023-04-29T12:16:09;155440.53;;;20.16;69.56
51287;BME280;37364;46.974;18.916;2023-04-29T12:18:43;155503.09;;;20.41;71.96
51287;BME280;37364;46.974;18.916;2023-04-29T12:21:14;155610.00;;;20.83;72.89
51287;BME280;37364;46.974;18.916;2023-04-29T12:23:48;155749.50;;;21.38;69.08
51287;BME280;37364;46.974;18.916;2023-04-29T12:26:19;155851.25;;;21.78;67.49
51287;BME280;37364;46.974;18.916;2023-04-29T12:28:53;155581.31;;;20.71;67.58
51287;BME280;37364;46.974;18.916;2023-04-29T12:31:31;155551.34;;;20.60;66.35
51287;BME280;37364;46.974;18.916;2023-04-29T12:34:02;155550.06;;;20.59;68.41
51287;BME280;37364;46.974;18.916;2023-04-29T12:36:35;155467.94;;;20.27;67.02
51287;BME280;37364;46.974;18.916;2023-04-29T12:39:09;155467.94;;;20.27;72.01
51287;BME280;37364;46.974;18.916;2023-04-29T12:41:45;155325.84;;;19.71;70.14
51287;BME280;37364;46.974;18.916;2023-04-29T12:44:18;155314.16;;;19.66;70.98
51287;BME280;37364;46.974;18.916;2023-04-29T12:47:11;155581.31;;;20.71;69.45
51287;BME280;37364;46.974;18.916;2023-04-29T12:49:47;155809.53;;;21.61;70.34
51287;BME280;37364;46.974;18.916;2023-04-29T12:52:18;155761.22;;;21.42;67.25
51287;BME280;37364;46.974;18.916;2023-04-29T12:54:52;155916.50;;;22.03;66.17
51287;BME280;37364;46.974;18.916;2023-04-29T12:57:48;155362.34;;;19.85;65.25
51287;BME280;37364;46.974;18.916;2023-04-29T13:00:22;155658.25;;;21.02;69.72
51287;BME280;37364;46.974;18.916;2023-04-29T13:03:02;155758.63;;;21.41;71.79
51287;BME280;37364;46.974;18.916;2023-04-29T13:05:41;155544.78;;;20.57;65.25
51287;BME280;37364;46.974;18.916;2023-04-29T13:08:17;155486.13;;;20.34;68.97
51287;BME280;37364;46.974;18.916;2023-04-29T13:10:57;155681.69;;;21.11;68.34
51287;BME280;37364;46.974;18.916;2023-04-29T13:13:28;155748.19;;;21.37;65.92
51287;BME280;37364;46.974;18.916;2023-04-29T13:16:04;155461.38;;;20.24;68.28
51287;BME280;37364;46.974;18.916;2023-04-29T13:18:38;155799.09;;;21.57;67.67